createdAt,value
2024-05-09T00:05:57.082Z,2.95
2024-05-09T00:15:58.550Z,3.15
2024-05-09T00:26:00.011Z,3.05
2024-05-09T00:36:01.415Z,2.78
2024-05-09T00:46:02.797Z,3.28
2024-05-09T00:56:04.271Z,2.95
2024-05-09T01:06:05.871Z,3.10
2024-05-09T01:16:07.258Z,2.88
2024-05-09T01:26:08.650Z,3.17
2024-05-09T01:36:10.024Z,2.67
2024-05-09T01:46:11.413Z,2.28
2024-05-09T01:56:12.802Z,2.30
2024-05-09T02:06:14.308Z,2.60
2024-05-09T02:16:15.748Z,2.33
2024-05-09T02:26:17.228Z,2.50
2024-05-09T02:36:18.706Z,3.45
2024-05-09T02:46:20.077Z,2.92
2024-05-09T02:56:21.506Z,2.30
2024-05-09T03:06:22.966Z,2.40
2024-05-09T03:16:24.347Z,2.08
2024-05-09T03:26:25.808Z,2.03
2024-05-09T03:36:27.283Z,2.10
2024-05-09T03:46:28.660Z,2.65
2024-05-09T03:56:30.132Z,2.85
2024-05-09T04:06:31.606Z,2.10
2024-05-09T04:16:32.969Z,2.25
2024-05-09T04:26:34.880Z,2.65
2024-05-09T04:36:36.311Z,2.25
2024-05-09T04:46:37.673Z,2.53
2024-05-09T04:56:39.132Z,2.20
2024-05-09T05:06:40.610Z,2.40
2024-05-09T05:16:41.981Z,2.72
2024-05-09T05:26:43.410Z,2.30
2024-05-09T05:36:44.808Z,2.25
2024-05-09T05:46:46.617Z,2.88
2024-05-09T05:56:49.244Z,2.63
2024-05-09T06:06:50.986Z,2.80
2024-05-09T06:16:54.652Z,2.80
2024-05-09T06:27:00.433Z,3.45
2024-05-09T06:37:07.712Z,3.75
2024-05-09T06:47:10.621Z,3.60
2024-05-09T06:57:13.588Z,3.33
2024-05-09T07:07:17.469Z,3.70
2024-05-09T07:17:19.009Z,2.97
2024-05-09T07:27:20.469Z,2.53
2024-05-09T07:37:21.841Z,3.65
2024-05-09T07:48:32.142Z,3.22
2024-05-09T07:57:44.614Z,2.83
2024-05-09T08:07:46.002Z,2.50
2024-05-09T08:17:48.568Z,2.83
2024-05-09T08:27:50.012Z,2.90
2024-05-09T08:37:51.527Z,3.00
2024-05-09T08:47:58.842Z,2.90
2024-05-09T08:58:03.205Z,2.65
2024-05-09T09:08:13.104Z,2.58
2024-05-09T09:18:14.565Z,3.10
2024-05-09T09:28:22.012Z,2.45
2024-05-09T09:38:30.001Z,2.40
2024-05-09T09:48:39.616Z,2.47
2024-05-09T09:58:58.670Z,2.70
2024-05-09T10:09:01.171Z,2.40
2024-05-09T10:19:02.724Z,2.60
2024-05-09T10:29:10.982Z,3.45
2024-05-09T10:39:19.025Z,2.40
2024-05-09T10:49:28.081Z,2.30
2024-05-09T10:59:36.012Z,2.53
2024-05-09T11:09:44.036Z,2.75
2024-05-09T11:19:52.262Z,3.50
2024-05-09T11:30:02.373Z,2.58
2024-05-09T11:40:25.746Z,3.20
2024-05-09T11:50:35.900Z,2.75
2024-05-09T12:00:38.176Z,3.30
2024-05-09T12:21:08.871Z,2.40
2024-05-09T12:31:25.799Z,2.35
2024-05-09T12:41:27.369Z,2.83
2024-05-09T12:51:28.933Z,3.08
2024-05-09T13:01:30.700Z,2.80
2024-05-09T13:11:34.328Z,2.15
2024-05-09T13:21:42.145Z,4.10
2024-05-09T13:31:52.187Z,3.88
2024-05-09T13:41:56.090Z,2.50
2024-05-09T13:51:57.578Z,2.95
2024-05-09T14:02:05.596Z,3.10
2024-05-09T14:12:14.039Z,3.38
2024-05-09T14:22:22.134Z,3.08
2024-05-09T14:32:30.932Z,4.53
2024-05-09T14:42:39.319Z,2.35
2024-05-09T14:52:47.066Z,4.20
2024-05-09T15:02:55.140Z,2.80
2024-05-09T15:23:11.787Z,3.53
2024-05-09T15:43:49.142Z,3.30
2024-05-09T15:53:58.087Z,3.78
2024-05-09T16:04:06.247Z,4.18
2024-05-09T16:14:17.214Z,3.60
2024-05-09T16:24:21.444Z,5.38
2024-05-09T16:34:29.459Z,4.05
2024-05-09T16:44:38.642Z,4.25
2024-05-09T16:54:46.618Z,4.78
2024-05-09T17:04:56.853Z,4.22
2024-05-09T17:15:05.089Z,4.50
2024-05-09T17:25:13.323Z,4.70
2024-05-09T17:35:20.971Z,5.05
2024-05-09T17:45:29.107Z,4.53
2024-05-09T17:55:37.252Z,4.30
2024-05-09T18:05:45.825Z,5.50
2024-05-09T18:15:54.281Z,4.75
2024-05-09T18:26:02.186Z,4.30
2024-05-09T18:36:10.118Z,4.32
2024-05-09T18:46:15.893Z,4.60
2024-05-09T18:56:27.617Z,4.43
2024-05-09T19:06:35.147Z,4.95
2024-05-09T19:16:36.646Z,4.28
2024-05-09T19:26:38.031Z,4.22
2024-05-09T19:36:39.544Z,4.50
2024-05-09T19:46:41.978Z,4.40
2024-05-09T19:56:43.424Z,4.75
2024-05-09T20:06:44.830Z,4.80
2024-05-09T20:16:47.318Z,4.47
2024-05-09T20:26:48.732Z,4.30
2024-05-09T20:36:50.161Z,5.40
2024-05-09T20:46:51.568Z,5.88
2024-05-09T20:56:52.974Z,6.10
2024-05-09T21:06:54.406Z,6.07
2024-05-09T21:16:56.039Z,6.07
2024-05-09T21:26:57.521Z,6.55
2024-05-09T21:36:58.921Z,6.22
2024-05-09T21:47:00.351Z,7.03
2024-05-09T21:57:01.781Z,6.22
2024-05-09T22:07:03.301Z,6.32
2024-05-09T22:17:04.803Z,6.57
2024-05-09T22:27:06.199Z,6.20
2024-05-09T22:37:07.661Z,6.25
2024-05-09T22:47:09.222Z,6.00
2024-05-09T22:57:10.667Z,6.20
2024-05-09T23:07:12.063Z,6.60
2024-05-09T23:17:13.539Z,6.50
2024-05-09T23:27:14.922Z,6.63
2024-05-09T23:37:16.448Z,6.15
2024-05-09T23:47:18.000Z,6.40
2024-05-09T23:57:19.436Z,6.47
